x

Point Arguello, Ca (ptgc1) Weather Station

10:00am - Thu 18th Dec 2014 All times are PST. -8 hours from GMT.

  • Wind
    8mph, 13mph gusts
  • Air Temp 59°f
  • Sea Pressure 1022mb
  • Point Arguello, Ca
  • Point Arguello, Ca

More Historic Weather Station data

Upgrade to MSW Pro to gain access to the past 30 days of data for over 8000 Wavebouys and Weather Stations around the globe.

Join Pro

Comparision Forecast

View Surf forecast
   
Thu 12/18 10:00am 8 13 mph 1022mb 59f
9:00am 5 9 mph 1021.5mb 58f
8:00am 14 16 mph 1020.3mb 56f
7:00am 11 16 mph 1019.8mb 55f
6:00am 17 20 mph 1019mb 54f
5:00am 21 26 mph 1018.3mb 53f
4:00am 14 18 mph 1018.7mb 54f
3:00am 3 11 mph 1019.4mb 56f
2:00am 8 9 mph 1019.4mb 58f
1:00am 6
mph
1019.5mb 57f
12:00am 6
mph
1020.1mb 56f
Wed 12/17 11:00pm 2 3 mph 1020.5mb 57f
10:00pm 5 6 mph 1020.5mb 57f
9:00pm 6
mph
1020.5mb 57f
8:00pm 6
mph
1020.1mb 57f
7:00pm 8 9 mph 1019.8mb 57f
6:00pm 8 9 mph 1019.5mb 56f
5:00pm 5 6 mph 1019.3mb 57f
4:00pm 7 8 mph 1019.1mb 57f
3:00pm 7 8 mph 1019mb 56f
2:00pm 9 10 mph 1019mb 56f
1:00pm 15 16 mph 1019.7mb 56f
12:00pm 13
mph
1019.7mb 58f
11:00am 15 16 mph 1019.7mb 58f
10:00am 14 16 mph 1019mb 57f
9:00am 10 13 mph 1018.3mb 56f
8:00am 13 14 mph 1017.5mb 56f
7:00am 8 10 mph 1017.2mb 55f
6:00am 14 15 mph 1016.1mb 55f
5:00am 15 18 mph 1015.5mb 55f
4:00am 20 21 mph 1015.4mb 58f
3:00am 23 25 mph 1015.3mb 58f
2:00am 11 16 mph 1014.8mb 57f
1:00am 10 13 mph 1014.1mb 58f
12:00am 15 17 mph 1014.1mb 57f
Tue 12/16 11:00pm 9 18 mph 1013.4mb 58f
10:00pm 17 25 mph 1013.1mb 58f
9:00pm 14 23 mph 1013.4mb 59f
8:00pm 16 22 mph 1014.3mb 59f
7:00pm 10 21 mph 1014.3mb 60f
6:00pm 16 23 mph 1014.2mb 59f
5:00pm 10 17 mph 1014.1mb 59f
4:00pm 10 23 mph 1014mb 59f
3:00pm 10 20 mph 1013.8mb 60f
2:00pm 11 21 mph 1014mb 60f
1:00pm 8 16 mph 1014.7mb 59f
12:00pm 9 17 mph 1014.8mb 59f
11:00am 9 15 mph 1016mb 60f
10:00am 5 8 mph 1016.3mb 61f
9:00am 9 21 mph 1016.2mb 58f
8:00am 9 15 mph 1015.3mb 57f
7:00am 11 16 mph 1015.5mb 57f
6:00am 16 18 mph 1015.2mb 56f
5:00am 18 20 mph 1014.6mb 56f
4:00am 17 21 mph 1014.4mb 56f
3:00am 20 28 mph 1014.1mb 56f
2:00am 15 22 mph 1014.1mb 56f
1:00am 22 25 mph 1014.1mb 56f
12:00am 28 33 mph 1014.2mb 56f
Mon 12/15 11:00pm 22 29 mph 1014.2mb 55f
10:00pm 18 24 mph 1014.7mb 55f
9:00pm 34 39 mph 1013.7mb 55f
8:00pm 11 14 mph 1014.6mb 53f
7:00pm 28 33 mph 1013.9mb 52f
6:00pm 16 30 mph 1011.4mb 58f
5:00pm 24 38 mph 1011mb 56f
4:00pm 23 37 mph 1010.7mb 58f
3:00pm 24 47 mph 1009.8mb 59f
2:00pm 23 46 mph 1010mb 59f
1:00pm 26 41 mph 1010.5mb 60f
12:00pm 21 48 mph 1011.4mb 60f
11:00am 16 34 mph 1014.2mb 59f
10:00am 15 30 mph 1015.3mb 59f
9:00am 14 32 mph 1015.6mb 59f
8:00am 10 18 mph 1015.5mb 59f
7:00am 15 26 mph 1015.3mb 59f
6:00am 13 23 mph 1014.4mb 58f
5:00am 15 26 mph 1014.4mb 58f
4:00am 16 25 mph 1014.8mb 58f
3:00am 7 15 mph 1015.5mb 58f
2:00am 11 21 mph 1015.9mb 58f
1:00am 11 22 mph 1016.1mb 59f
12:00am 11 20 mph 1016.8mb 58f
Sun 12/14 11:00pm 7 13 mph 1017.2mb 58f
10:00pm 8 16 mph 1017.4mb 59f
9:00pm 2 6 mph 1017.5mb 59f
8:00pm 9 16 mph 1017.6mb 58f